createdAt,value
2022-09-16T00:03:34.700Z,18.60
2022-09-16T00:08:38.396Z,18.60
2022-09-16T00:13:41.664Z,18.50
2022-09-16T00:18:43.639Z,18.50
2022-09-16T00:23:45.612Z,18.40
2022-09-16T00:28:49.000Z,18.30
2022-09-16T00:33:50.932Z,18.30
2022-09-16T00:38:54.757Z,18.20
2022-09-16T00:43:58.279Z,18.10
2022-09-16T00:49:02.807Z,18.00
2022-09-16T00:54:05.898Z,17.90
2022-09-16T00:59:10.737Z,17.80
2022-09-16T01:04:22.344Z,17.80
2022-09-16T01:09:25.814Z,17.70
2022-09-16T01:14:47.422Z,17.70
2022-09-16T01:19:55.473Z,17.70
2022-09-16T01:25:03.151Z,17.70
2022-09-16T01:30:14.721Z,17.60
2022-09-16T01:35:16.601Z,17.60
2022-09-16T01:40:30.568Z,17.60
2022-09-16T01:45:35.643Z,17.60
2022-09-16T01:50:48.412Z,17.50
2022-09-16T01:55:56.244Z,17.60
2022-09-16T02:01:02.389Z,17.60
2022-09-16T02:06:12.068Z,17.60
2022-09-16T02:11:14.672Z,17.60
2022-09-16T02:16:29.004Z,17.60
2022-09-16T02:21:33.263Z,17.70
2022-09-16T02:26:37.892Z,17.70
2022-09-16T02:31:41.386Z,17.70
2022-09-16T02:36:45.174Z,17.70
2022-09-16T02:41:47.175Z,17.70
2022-09-16T02:46:49.113Z,17.80
2022-09-16T02:51:58.501Z,17.70
2022-09-16T02:57:00.526Z,17.80
2022-09-16T03:02:02.725Z,17.80
2022-09-16T03:07:05.946Z,17.80
2022-09-16T03:12:08.445Z,17.80
2022-09-16T03:17:13.080Z,17.80
2022-09-16T03:22:33.472Z,17.80
2022-09-16T03:28:01.409Z,17.80
2022-09-16T03:33:09.651Z,17.80
2022-09-16T03:38:12.353Z,17.80
2022-09-16T03:43:15.980Z,17.80
2022-09-16T03:48:17.887Z,17.80
2022-09-16T03:53:19.785Z,17.80
2022-09-16T03:58:21.696Z,17.80
2022-09-16T04:03:23.729Z,17.90
2022-09-16T04:08:25.703Z,17.80
2022-09-16T04:13:31.303Z,17.90
2022-09-16T04:18:34.640Z,17.80
2022-09-16T04:23:36.561Z,17.90
2022-09-16T04:28:39.119Z,17.90
2022-09-16T04:33:41.694Z,17.80
2022-09-16T04:38:44.536Z,17.90
2022-09-16T04:43:46.938Z,17.90
2022-09-16T04:48:49.572Z,17.90
2022-09-16T04:53:51.504Z,17.90
2022-09-16T04:58:54.645Z,17.90
2022-09-16T05:03:58.412Z,17.90
2022-09-16T05:09:00.951Z,17.90
2022-09-16T05:14:04.655Z,17.90
2022-09-16T05:19:06.594Z,18.00
2022-09-16T05:24:09.281Z,18.00
2022-09-16T05:29:16.005Z,18.00
2022-09-16T05:34:19.301Z,18.00
2022-09-16T05:39:23.614Z,18.10
2022-09-16T05:44:27.482Z,18.00
2022-09-16T05:49:29.377Z,18.10
2022-09-16T05:54:31.336Z,18.00
2022-09-16T05:59:33.246Z,18.00
2022-09-16T06:04:35.579Z,18.20
2022-09-16T06:09:37.570Z,18.10
2022-09-16T06:14:39.438Z,18.30
2022-09-16T06:19:41.392Z,18.30
2022-09-16T06:24:43.276Z,18.40
2022-09-16T06:29:45.400Z,18.50
2022-09-16T06:34:47.405Z,18.60
2022-09-16T06:39:49.387Z,18.60
2022-09-16T06:44:51.356Z,18.80
2022-09-16T06:49:53.419Z,18.80
2022-09-16T06:54:55.384Z,18.90
2022-09-16T06:59:57.283Z,18.90
2022-09-16T07:04:59.276Z,18.90
2022-09-16T07:10:01.239Z,19.00
2022-09-16T07:15:03.372Z,19.00
2022-09-16T07:20:06.130Z,19.20
2022-09-16T07:25:08.097Z,19.30
2022-09-16T07:35:12.355Z,19.60
2022-09-16T07:40:14.387Z,19.70
2022-09-16T07:45:16.395Z,19.70
2022-09-16T07:50:18.376Z,19.80
2022-09-16T07:55:20.567Z,20.00
2022-09-16T08:00:22.552Z,20.10
2022-09-16T08:05:24.585Z,20.10
2022-09-16T08:10:30.392Z,20.10
2022-09-16T08:15:34.453Z,20.30
2022-09-16T08:20:36.826Z,20.40
2022-09-16T08:25:38.726Z,20.50
2022-09-16T08:30:41.021Z,20.60
2022-09-16T08:35:42.950Z,20.70
2022-09-16T08:40:45.400Z,20.70
2022-09-16T08:45:50.101Z,20.80
2022-09-16T08:50:52.555Z,20.90
2022-09-16T08:55:54.710Z,20.90
2022-09-16T09:00:58.581Z,20.90
2022-09-16T09:06:02.059Z,20.90
2022-09-16T09:11:21.496Z,20.90
2022-09-16T09:16:23.471Z,20.80
2022-09-16T09:21:29.055Z,20.80
2022-09-16T09:26:57.001Z,20.90
2022-09-16T09:31:58.994Z,20.90
2022-09-16T09:37:07.124Z,21.00
2022-09-16T09:42:24.406Z,21.20
2022-09-16T09:47:38.530Z,21.20
2022-09-16T09:52:47.952Z,21.40
2022-09-16T09:58:05.678Z,21.40
2022-09-16T10:03:11.906Z,21.50
2022-09-16T10:08:17.597Z,21.50
2022-09-16T10:13:20.614Z,21.70
2022-09-16T10:18:26.973Z,21.80
2022-09-16T10:23:30.149Z,22.20
2022-09-16T10:28:33.123Z,22.40
2022-09-16T10:33:36.368Z,22.50
2022-09-16T10:38:42.636Z,22.60
2022-09-16T10:43:54.537Z,22.70
2022-09-16T10:49:01.441Z,22.90
2022-09-16T10:54:06.105Z,23.00
2022-09-16T10:59:12.036Z,23.00
2022-09-16T11:04:13.985Z,23.00
2022-09-16T11:09:15.906Z,23.20
2022-09-16T11:14:36.646Z,23.40
2022-09-16T11:19:47.910Z,23.40
2022-09-16T11:24:55.776Z,23.40
2022-09-16T11:30:00.492Z,23.40
2022-09-16T11:35:09.387Z,23.50
2022-09-16T11:40:20.389Z,23.40
2022-09-16T11:45:28.615Z,23.30
2022-09-16T11:50:56.705Z,23.20
2022-09-16T11:56:01.622Z,23.00
2022-09-16T12:01:11.781Z,22.90
2022-09-16T12:06:23.643Z,22.90
2022-09-16T12:11:36.470Z,23.00
2022-09-16T12:16:51.432Z,23.10
2022-09-16T12:22:02.854Z,23.40
2022-09-16T12:27:10.842Z,24.00
2022-09-16T12:32:19.731Z,24.10
2022-09-16T12:37:34.273Z,24.60
2022-09-16T12:42:45.995Z,25.40
2022-09-16T12:48:21.380Z,25.40
2022-09-16T12:53:37.009Z,25.60
2022-09-16T12:58:49.746Z,26.00
2022-09-16T13:03:56.704Z,25.90
2022-09-16T13:09:13.790Z,25.80
2022-09-16T13:14:21.257Z,25.40
2022-09-16T13:19:32.478Z,24.90
2022-09-16T13:24:39.324Z,24.70
2022-09-16T13:29:44.119Z,24.20
2022-09-16T13:34:46.143Z,24.10
2022-09-16T13:39:50.342Z,23.30
2022-09-16T13:44:52.840Z,23.30
2022-09-16T13:50:04.736Z,23.10
2022-09-16T13:55:17.814Z,23.00
2022-09-16T14:00:32.342Z,22.90
2022-09-16T14:05:55.946Z,22.90
2022-09-16T14:11:09.723Z,22.70
2022-09-16T14:16:17.056Z,22.40
2022-09-16T14:21:20.678Z,22.10
2022-09-16T14:26:23.395Z,21.90
2022-09-16T14:31:29.371Z,21.60
2022-09-16T14:36:33.923Z,21.20
2022-09-16T14:41:37.901Z,21.10
2022-09-16T14:46:45.038Z,21.00
2022-09-16T14:51:52.083Z,20.30
2022-09-16T14:56:55.162Z,21.10
2022-09-16T15:01:59.632Z,21.20
2022-09-16T15:07:11.842Z,21.30
2022-09-16T15:12:20.088Z,21.40
2022-09-16T15:17:23.880Z,21.40
2022-09-16T15:22:26.744Z,21.20
2022-09-16T15:27:31.676Z,21.00
2022-09-16T15:32:42.544Z,20.90
2022-09-16T15:37:44.526Z,20.80
2022-09-16T15:42:47.757Z,20.70
2022-09-16T15:47:53.509Z,20.70
2022-09-16T15:52:55.521Z,20.60
2022-09-16T15:58:01.595Z,20.70
2022-09-16T16:03:17.104Z,20.60
2022-09-16T16:08:37.830Z,20.60
2022-09-16T16:13:40.327Z,20.60
2022-09-16T16:18:43.058Z,20.50
2022-09-16T16:23:44.952Z,20.30
2022-09-16T16:28:46.913Z,20.20
2022-09-16T16:33:48.947Z,19.90
2022-09-16T16:38:50.952Z,19.80
2022-09-16T16:43:53.645Z,19.60
2022-09-16T16:48:55.583Z,19.30
2022-09-16T16:53:57.634Z,19.20
2022-09-16T16:58:59.892Z,19.20
2022-09-16T17:04:05.017Z,19.20
2022-09-16T17:09:10.224Z,19.20
2022-09-16T17:14:14.475Z,19.20
2022-09-16T17:19:17.381Z,19.10
2022-09-16T17:24:19.557Z,19.00
2022-09-16T17:29:21.486Z,19.00
2022-09-16T17:34:23.838Z,18.90
2022-09-16T17:39:26.199Z,18.70
2022-09-16T17:44:28.133Z,18.70
2022-09-16T17:49:30.179Z,18.50
2022-09-16T17:54:32.130Z,18.40
2022-09-16T17:59:34.057Z,18.20
2022-09-16T18:04:36.084Z,18.20
2022-09-16T18:09:38.049Z,18.20
2022-09-16T18:14:40.079Z,18.00
2022-09-16T18:19:41.998Z,17.80
2022-09-16T18:24:44.249Z,17.60
2022-09-16T18:29:46.177Z,17.60
2022-09-16T18:34:48.141Z,17.40
2022-09-16T18:39:50.225Z,17.30
2022-09-16T18:44:52.221Z,17.20
2022-09-16T18:49:54.195Z,17.10
2022-09-16T18:54:56.093Z,17.10
2022-09-16T18:59:58.074Z,17.00
2022-09-16T19:05:00.033Z,16.90
2022-09-16T19:10:01.984Z,17.00
2022-09-16T19:15:04.083Z,16.90
2022-09-16T19:20:06.636Z,16.80
2022-09-16T19:25:08.606Z,16.70
2022-09-16T19:30:10.768Z,16.90
2022-09-16T19:35:13.515Z,16.80
2022-09-16T19:40:15.556Z,16.60
2022-09-16T19:45:17.685Z,16.60
2022-09-16T19:50:19.685Z,16.60
2022-09-16T19:55:21.626Z,16.50
2022-09-16T20:00:36.562Z,16.40
2022-09-16T20:05:45.738Z,16.40
2022-09-16T20:10:47.702Z,16.40
2022-09-16T20:15:49.649Z,16.40
2022-09-16T20:20:51.759Z,16.30
2022-09-16T20:25:54.678Z,16.30
2022-09-16T20:30:56.979Z,16.20
2022-09-16T20:36:06.070Z,16.20
2022-09-16T20:41:15.797Z,16.20
2022-09-16T20:46:19.437Z,16.10
2022-09-16T20:51:23.232Z,16.00
2022-09-16T20:56:25.839Z,16.00
2022-09-16T21:01:31.967Z,15.90
2022-09-16T21:06:34.941Z,15.90
2022-09-16T21:11:38.264Z,15.80
2022-09-16T21:16:40.883Z,15.70
2022-09-16T21:21:48.398Z,15.70
2022-09-16T21:26:51.270Z,15.60
2022-09-16T21:31:53.633Z,15.60
2022-09-16T21:42:01.032Z,15.60
2022-09-16T21:47:02.953Z,15.60
2022-09-16T21:52:04.931Z,15.50
2022-09-16T21:57:06.874Z,15.50
2022-09-16T22:02:09.089Z,15.50
2022-09-16T22:07:10.985Z,15.40
2022-09-16T22:12:12.950Z,15.40
2022-09-16T22:17:14.896Z,15.40
2022-09-16T22:22:16.817Z,15.30
2022-09-16T22:27:18.705Z,15.30
2022-09-16T22:32:20.591Z,15.20
2022-09-16T22:37:22.519Z,15.10
2022-09-16T22:42:24.423Z,15.00
2022-09-16T22:47:26.374Z,14.90
2022-09-16T22:52:32.079Z,14.80
2022-09-16T22:57:34.031Z,14.80
2022-09-16T23:02:35.994Z,14.90
2022-09-16T23:07:38.889Z,14.90
2022-09-16T23:12:42.531Z,14.90
2022-09-16T23:17:44.451Z,14.90
2022-09-16T23:22:46.411Z,14.90
2022-09-16T23:27:48.811Z,14.90
2022-09-16T23:32:50.702Z,14.90
2022-09-16T23:37:52.784Z,15.00
2022-09-16T23:42:58.461Z,15.00
2022-09-16T23:48:00.839Z,15.10
2022-09-16T23:53:02.816Z,15.00
2022-09-16T23:58:04.701Z,14.90
